createdAt,value
2023-05-19T00:00:15.640Z,100611.13
2023-05-19T00:02:44.119Z,100607.25
2023-05-19T00:05:13.085Z,100606.97
2023-05-19T00:07:40.117Z,100610.75
2023-05-19T00:10:07.482Z,100609.41
2023-05-19T00:12:34.865Z,100612.81
2023-05-19T00:15:01.655Z,100607.56
2023-05-19T00:17:31.322Z,100613.47
2023-05-19T00:19:58.070Z,100612.81
2023-05-19T00:22:28.123Z,100616.16
2023-05-19T00:24:55.134Z,100608.66
2023-05-19T00:27:21.877Z,100616.59
2023-05-19T00:29:48.472Z,100614.66
2023-05-19T00:32:15.995Z,100603.69
2023-05-19T00:34:45.478Z,100595.22
2023-05-19T00:37:12.077Z,100603.28
2023-05-19T00:39:38.689Z,100592.25
2023-05-19T00:42:07.725Z,100598.22
2023-05-19T00:44:34.510Z,100589.00
2023-05-19T00:47:01.452Z,100588.94
2023-05-19T00:49:30.438Z,100590.66
2023-05-19T00:51:57.844Z,100594.06
2023-05-19T00:54:27.401Z,100590.72
2023-05-19T00:56:59.189Z,100590.69
2023-05-19T00:59:28.505Z,100600.22
2023-05-19T01:01:57.802Z,100599.31
2023-05-19T01:04:27.917Z,100588.03
2023-05-19T01:06:56.938Z,100583.75
2023-05-19T01:09:25.941Z,100581.63
2023-05-19T01:11:57.285Z,100583.31
2023-05-19T01:14:24.018Z,100583.13
2023-05-19T01:16:55.127Z,100594.53
2023-05-19T01:19:27.914Z,100584.16
2023-05-19T01:22:03.635Z,100594.59
2023-05-19T01:24:47.572Z,100588.69
2023-05-19T01:27:32.861Z,100593.75
2023-05-19T01:30:18.366Z,100599.75
2023-05-19T01:32:46.966Z,100597.09
2023-05-19T01:35:21.862Z,100596.94
2023-05-19T01:37:50.627Z,100595.34
2023-05-19T01:40:21.633Z,100599.81
2023-05-19T01:42:49.447Z,100594.75
2023-05-19T01:45:16.708Z,100596.47
2023-05-19T01:47:46.700Z,100589.44
2023-05-19T01:50:16.070Z,100583.53
2023-05-19T01:52:42.766Z,100581.81
2023-05-19T01:55:09.936Z,100573.75
2023-05-19T01:58:01.388Z,100580.63
2023-05-19T02:00:43.290Z,100579.09
2023-05-19T02:03:40.562Z,100588.59
2023-05-19T02:06:16.186Z,100582.63
2023-05-19T02:09:07.929Z,100585.16
2023-05-19T02:11:40.346Z,100588.56
2023-05-19T02:14:18.325Z,100590.84
2023-05-19T02:16:50.352Z,100585.56
2023-05-19T02:19:30.423Z,100594.25
2023-05-19T02:21:57.101Z,100594.44
2023-05-19T02:24:24.011Z,100587.31
2023-05-19T02:26:53.973Z,100592.41
2023-05-19T02:29:25.867Z,100588.22
2023-05-19T02:31:55.337Z,100590.78
2023-05-19T02:34:22.186Z,100588.88
2023-05-19T02:36:53.836Z,100587.09
2023-05-19T02:39:23.218Z,100583.34
2023-05-19T02:41:52.081Z,100580.44
2023-05-19T02:44:18.728Z,100581.16
2023-05-19T02:46:52.719Z,100584.22
2023-05-19T02:49:22.482Z,100584.44
2023-05-19T02:51:49.062Z,100575.97
2023-05-19T02:54:20.625Z,100579.59
2023-05-19T02:56:47.514Z,100575.25
2023-05-19T02:59:16.553Z,100587.31
2023-05-19T03:01:47.783Z,100588.34
2023-05-19T03:04:20.060Z,100584.78
2023-05-19T03:06:49.192Z,100593.19
2023-05-19T03:09:18.172Z,100593.13
2023-05-19T03:11:47.019Z,100593.31
2023-05-19T03:14:15.737Z,100587.00
2023-05-19T03:16:42.725Z,100587.19
2023-05-19T03:19:12.259Z,100594.84
2023-05-19T03:21:39.203Z,100596.63
2023-05-19T03:24:06.762Z,100599.84
2023-05-19T03:26:38.418Z,100599.84
2023-05-19T03:29:05.134Z,100610.09
2023-05-19T03:31:31.840Z,100610.56
2023-05-19T03:33:58.581Z,100606.09
2023-05-19T03:36:26.245Z,100597.63
2023-05-19T03:38:55.251Z,100595.06
2023-05-19T03:41:22.279Z,100597.81
2023-05-19T03:43:49.916Z,100597.91
2023-05-19T03:46:18.860Z,100595.34
2023-05-19T03:48:47.883Z,100596.38
2023-05-19T03:51:14.534Z,100594.69
2023-05-19T03:53:41.438Z,100591.22
2023-05-19T03:56:08.929Z,100598.34
2023-05-19T03:58:37.075Z,100603.59
2023-05-19T04:01:03.694Z,100605.31
2023-05-19T04:03:32.440Z,100602.69
2023-05-19T04:06:06.882Z,100610.97
2023-05-19T04:08:33.688Z,100609.97
2023-05-19T04:11:04.316Z,100604.00
2023-05-19T04:13:36.740Z,100607.84
2023-05-19T04:16:06.131Z,100607.97
2023-05-19T04:18:32.835Z,100614.75
2023-05-19T04:20:59.415Z,100611.59
2023-05-19T04:23:26.462Z,100617.63
2023-05-19T04:25:57.138Z,100617.63
2023-05-19T04:28:24.026Z,100615.81
2023-05-19T04:30:50.668Z,100619.63
2023-05-19T04:33:17.878Z,100619.72
2023-05-19T04:35:44.564Z,100623.72
2023-05-19T04:38:12.591Z,100626.09
2023-05-19T04:40:42.891Z,100629.34
2023-05-19T04:43:14.322Z,100632.97
2023-05-19T04:45:46.597Z,100634.81
2023-05-19T04:48:13.956Z,100637.78
2023-05-19T04:50:43.138Z,100637.81
2023-05-19T04:53:12.114Z,100640.56
2023-05-19T04:55:40.981Z,100637.19
2023-05-19T04:58:10.306Z,100643.00
2023-05-19T05:00:39.935Z,100639.56
2023-05-19T05:03:09.057Z,100640.56
2023-05-19T05:05:35.755Z,100639.19
2023-05-19T05:08:07.216Z,100634.97
2023-05-19T05:10:34.082Z,100635.97
2023-05-19T05:13:02.002Z,100647.91
2023-05-19T05:15:29.922Z,100637.81
2023-05-19T05:17:56.983Z,100650.00
2023-05-19T05:20:26.540Z,100649.16
2023-05-19T05:22:53.481Z,100650.75
2023-05-19T05:25:20.719Z,100657.88
2023-05-19T05:27:47.368Z,100658.94
2023-05-19T05:30:14.190Z,100655.63
2023-05-19T05:32:43.356Z,100650.63
2023-05-19T05:35:15.135Z,100648.69
2023-05-19T05:37:41.729Z,100653.97
2023-05-19T05:40:11.188Z,100653.03
2023-05-19T05:42:37.759Z,100650.63
2023-05-19T05:45:04.803Z,100648.25
2023-05-19T05:47:34.129Z,100652.44
2023-05-19T05:50:04.417Z,100651.69
2023-05-19T05:52:35.578Z,100654.53
2023-05-19T05:55:02.624Z,100651.19
2023-05-19T05:57:31.459Z,100656.63
2023-05-19T06:00:00.350Z,100656.41
2023-05-19T06:02:31.783Z,100656.50
2023-05-19T06:04:58.708Z,100646.13
2023-05-19T06:07:25.458Z,100660.88
2023-05-19T06:09:54.426Z,100653.91
2023-05-19T06:12:22.991Z,100663.00
2023-05-19T06:14:49.682Z,100659.41
2023-05-19T06:17:18.685Z,100653.69
2023-05-19T06:19:50.174Z,100665.75
2023-05-19T06:22:21.728Z,100661.53
2023-05-19T06:24:48.538Z,100665.91
2023-05-19T06:27:15.221Z,100669.38
2023-05-19T06:29:41.943Z,100669.41
2023-05-19T06:32:08.561Z,100675.63
2023-05-19T06:34:38.411Z,100670.50
2023-05-19T06:37:04.996Z,100682.69
2023-05-19T06:39:34.114Z,100685.31
2023-05-19T06:42:00.775Z,100684.56
2023-05-19T06:44:27.497Z,100689.75
2023-05-19T06:46:58.905Z,100682.88
2023-05-19T06:49:30.732Z,100691.47
2023-05-19T06:52:02.393Z,100692.28
2023-05-19T06:54:29.030Z,100700.31
2023-05-19T06:56:55.758Z,100703.84
2023-05-19T06:59:27.118Z,100702.16
2023-05-19T07:01:53.725Z,100703.03
2023-05-19T07:04:23.837Z,100706.53
2023-05-19T07:06:50.462Z,100709.13
2023-05-19T07:09:17.249Z,100703.09
2023-05-19T07:11:44.337Z,100692.75
2023-05-19T07:14:15.454Z,100697.13
2023-05-19T07:16:44.401Z,100688.47
2023-05-19T07:19:11.076Z,100690.28
2023-05-19T07:21:40.142Z,100691.09
2023-05-19T07:24:07.081Z,100685.09
2023-05-19T07:26:33.731Z,100680.75
2023-05-19T07:29:00.475Z,100677.31
2023-05-19T07:31:27.118Z,100679.91
2023-05-19T07:33:56.978Z,100675.56
2023-05-19T07:36:23.676Z,100674.72
2023-05-19T07:38:55.136Z,100679.03
2023-05-19T07:41:21.873Z,100676.44
2023-05-19T07:43:50.846Z,100672.97
2023-05-19T07:46:17.563Z,100677.28
2023-05-19T07:48:44.345Z,100667.78
2023-05-19T07:51:12.500Z,100669.41
2023-05-19T07:53:39.152Z,100670.38
2023-05-19T07:56:08.124Z,100660.81
2023-05-19T07:58:34.944Z,100660.81
2023-05-19T08:01:01.757Z,100657.34
2023-05-19T08:03:30.667Z,100664.25
2023-05-19T08:06:02.921Z,100662.47
2023-05-19T08:08:29.556Z,100664.13
2023-05-19T08:10:58.420Z,100660.56
2023-05-19T08:13:26.954Z,100657.81
2023-05-19T08:15:59.549Z,100646.50
2023-05-19T08:18:28.732Z,100646.47
2023-05-19T08:20:56.167Z,100649.03
2023-05-19T08:23:22.839Z,100650.94
2023-05-19T08:25:52.347Z,100653.63
2023-05-19T08:28:18.959Z,100650.22
2023-05-19T08:30:47.933Z,100659.03
2023-05-19T08:33:17.523Z,100657.28
2023-05-19T08:35:46.809Z,100650.41
2023-05-19T08:38:13.578Z,100648.63
2023-05-19T08:40:46.312Z,100638.19
2023-05-19T08:43:13.164Z,100653.84
2023-05-19T08:45:43.592Z,100655.53
2023-05-19T08:48:13.103Z,100655.53
2023-05-19T08:50:44.228Z,100658.16
2023-05-19T08:53:32.556Z,100649.41
2023-05-19T08:56:31.404Z,100646.75
2023-05-19T08:59:00.506Z,100650.97
2023-05-19T09:01:28.926Z,100660.53
2023-05-19T09:03:58.607Z,100648.31
2023-05-19T09:06:26.488Z,100649.88
2023-05-19T09:08:57.962Z,100641.94
2023-05-19T09:11:27.571Z,100646.22
2023-05-19T09:13:56.612Z,100643.53
2023-05-19T09:16:23.376Z,100644.44
2023-05-19T09:19:01.412Z,100644.38
2023-05-19T09:21:31.279Z,100650.50
2023-05-19T09:23:59.280Z,100641.88
2023-05-19T09:26:37.384Z,100639.22
2023-05-19T09:29:17.063Z,100651.38
2023-05-19T09:31:54.668Z,100647.88
2023-05-19T09:34:25.060Z,100641.75
2023-05-19T09:36:54.264Z,100643.38
2023-05-19T09:39:23.232Z,100640.72
2023-05-19T09:41:58.662Z,100644.06
2023-05-19T09:44:29.817Z,100642.41
2023-05-19T09:47:00.132Z,100637.28
2023-05-19T09:49:32.846Z,100640.94
2023-05-19T09:52:03.916Z,100631.63
2023-05-19T09:54:32.517Z,100635.84
2023-05-19T09:57:03.599Z,100626.41
2023-05-19T09:59:33.464Z,100634.03
2023-05-19T10:02:01.593Z,100623.69
2023-05-19T10:04:30.144Z,100618.56
2023-05-19T10:06:59.792Z,100608.97
2023-05-19T10:09:30.615Z,100610.84
2023-05-19T10:11:59.805Z,100602.94
2023-05-19T10:14:31.224Z,100599.94
2023-05-19T10:17:00.330Z,100606.63
2023-05-19T10:19:28.910Z,100597.66
2023-05-19T10:21:56.309Z,100601.72
2023-05-19T10:24:23.050Z,100599.16
2023-05-19T10:27:03.533Z,100604.16
2023-05-19T10:29:33.473Z,100602.53
2023-05-19T10:32:09.520Z,100603.34
2023-05-19T10:35:16.252Z,100596.53
2023-05-19T10:38:05.052Z,100598.59
2023-05-19T10:40:39.039Z,100593.28
2023-05-19T10:43:18.622Z,100599.75
2023-05-19T10:45:51.672Z,100589.59
2023-05-19T10:48:23.974Z,100592.94
2023-05-19T10:50:57.158Z,100587.47
2023-05-19T10:53:37.241Z,100582.38
2023-05-19T10:56:04.504Z,100590.38
2023-05-19T10:58:38.336Z,100589.94
2023-05-19T11:01:11.683Z,100587.69
2023-05-19T11:04:09.195Z,100575.91
2023-05-19T11:06:36.451Z,100572.03
2023-05-19T11:09:34.153Z,100575.75
2023-05-19T11:12:06.958Z,100570.53
2023-05-19T11:14:40.212Z,100574.75
2023-05-19T11:17:18.129Z,100572.06
2023-05-19T11:20:03.858Z,100565.28
2023-05-19T11:22:30.592Z,100570.13
2023-05-19T11:24:59.940Z,100564.81
2023-05-19T11:27:33.307Z,100569.75
2023-05-19T11:30:20.025Z,100561.31
2023-05-19T11:32:49.728Z,100561.88
2023-05-19T11:35:19.120Z,100561.91
2023-05-19T11:37:50.561Z,100561.97
2023-05-19T11:40:18.059Z,100561.63
2023-05-19T11:42:45.640Z,100562.00
2023-05-19T11:45:12.310Z,100565.00
2023-05-19T11:47:59.727Z,100569.13
2023-05-19T11:50:31.450Z,100567.00
2023-05-19T11:53:00.531Z,100565.28
2023-05-19T11:55:27.965Z,100568.69
2023-05-19T11:58:05.203Z,100569.00
2023-05-19T12:00:39.567Z,100559.94
2023-05-19T12:03:07.514Z,100563.09
2023-05-19T12:05:43.650Z,100555.66
2023-05-19T12:08:13.444Z,100548.63
2023-05-19T12:10:43.363Z,100544.69
2023-05-19T12:13:12.745Z,100542.22
2023-05-19T12:15:39.626Z,100546.34
2023-05-19T12:18:06.791Z,100540.78
2023-05-19T12:20:37.388Z,100538.56
2023-05-19T12:23:09.306Z,100531.75
2023-05-19T12:25:36.461Z,100538.19
2023-05-19T12:28:08.080Z,100533.59
2023-05-19T12:30:37.356Z,100526.41
2023-05-19T12:33:04.546Z,100519.84
2023-05-19T12:35:34.302Z,100507.06
2023-05-19T12:38:04.998Z,100509.13
2023-05-19T12:40:33.400Z,100509.91
2023-05-19T12:43:02.467Z,100496.06
2023-05-19T12:45:33.734Z,100496.00
2023-05-19T12:48:04.339Z,100507.63
2023-05-19T12:50:34.383Z,100503.66
2023-05-19T12:53:03.814Z,100494.47
2023-05-19T12:55:30.564Z,100493.72
2023-05-19T12:57:59.481Z,100495.53
2023-05-19T13:00:28.982Z,100495.28
2023-05-19T13:03:05.226Z,100496.66
2023-05-19T13:05:40.400Z,100497.72
2023-05-19T13:08:08.977Z,100495.44
2023-05-19T13:10:38.536Z,100482.00
2023-05-19T13:13:05.919Z,100484.03
2023-05-19T13:15:35.555Z,100491.03
2023-05-19T13:18:04.352Z,100482.38
2023-05-19T13:20:31.198Z,100481.63
2023-05-19T13:23:00.417Z,100481.72
2023-05-19T13:25:27.821Z,100478.69
2023-05-19T13:27:59.336Z,100470.50
2023-05-19T13:30:28.491Z,100473.06
2023-05-19T13:32:56.419Z,100460.59
2023-05-19T13:35:26.559Z,100453.09
2023-05-19T13:37:55.418Z,100452.66
2023-05-19T13:40:28.201Z,100449.69
2023-05-19T13:42:59.838Z,100453.84
2023-05-19T13:45:31.647Z,100446.97
2023-05-19T13:48:00.996Z,100452.28
2023-05-19T13:50:29.858Z,100452.72
2023-05-19T13:52:58.770Z,100445.75
2023-05-19T13:55:29.005Z,100448.53
2023-05-19T13:57:58.180Z,100438.72
2023-05-19T14:00:24.969Z,100446.44
2023-05-19T14:02:51.636Z,100447.13
2023-05-19T14:05:20.755Z,100450.16
2023-05-19T14:08:43.439Z,100444.81
2023-05-19T14:11:17.164Z,100444.75
2023-05-19T14:14:03.558Z,100441.06
2023-05-19T14:16:30.536Z,100445.47
2023-05-19T14:18:57.288Z,100447.63
2023-05-19T14:21:26.138Z,100443.38
2023-05-19T14:23:55.218Z,100438.44
2023-05-19T14:26:21.990Z,100436.75
2023-05-19T14:28:51.449Z,100440.31
2023-05-19T14:31:23.446Z,100438.88
2023-05-19T14:33:54.231Z,100438.94
2023-05-19T14:36:21.160Z,100433.94
2023-05-19T14:45:15.386Z,100434.50
2023-05-19T14:47:42.077Z,100425.34
2023-05-19T14:50:08.904Z,100427.91
2023-05-19T14:52:35.607Z,100431.75
2023-05-19T14:55:02.457Z,100429.34
2023-05-19T14:57:32.160Z,100419.91
2023-05-19T14:59:58.729Z,100416.94
2023-05-19T15:02:26.889Z,100424.06
2023-05-19T15:04:57.261Z,100426.22
2023-05-19T15:07:32.654Z,100425.28
2023-05-19T15:13:42.093Z,100424.72
2023-05-19T15:16:17.281Z,100415.94
2023-05-19T15:18:51.541Z,100417.69
2023-05-19T15:21:20.494Z,100425.06
2023-05-19T15:23:49.351Z,100415.38
2023-05-19T15:26:16.119Z,100422.88
2023-05-19T15:28:43.127Z,100424.06
2023-05-19T15:31:11.985Z,100426.84
2023-05-19T15:33:41.190Z,100417.06
2023-05-19T15:36:16.710Z,100419.56
2023-05-19T15:38:52.988Z,100422.06
2023-05-19T15:41:22.090Z,100410.38
2023-05-19T15:43:51.278Z,100403.44
2023-05-19T15:46:20.178Z,100413.25
2023-05-19T15:48:49.220Z,100415.09
2023-05-19T15:51:16.136Z,100405.06
2023-05-19T15:53:47.667Z,100413.88
2023-05-19T15:56:14.511Z,100409.66
2023-05-19T15:58:41.298Z,100400.72
2023-05-19T16:01:08.574Z,100409.47
2023-05-19T16:03:37.707Z,100412.88
2023-05-19T16:06:04.664Z,100409.47
2023-05-19T16:08:31.364Z,100409.69
2023-05-19T16:10:58.086Z,100403.66
2023-05-19T16:13:26.943Z,100412.38
2023-05-19T16:15:54.011Z,100411.53
2023-05-19T16:18:23.791Z,100414.13
2023-05-19T16:20:56.064Z,100413.72
2023-05-19T16:23:24.630Z,100418.13
2023-05-19T16:25:51.252Z,100420.75
2023-05-19T16:28:22.448Z,100420.50
2023-05-19T16:30:50.454Z,100424.66
2023-05-19T16:33:17.145Z,100407.47
2023-05-19T16:35:46.270Z,100422.50
2023-05-19T16:38:15.192Z,100423.66
2023-05-19T16:40:44.790Z,100428.72
2023-05-19T16:43:14.184Z,100432.50
2023-05-19T16:45:50.617Z,100431.19
2023-05-19T16:48:17.451Z,100429.81
2023-05-19T16:50:44.090Z,100420.66
2023-05-19T16:53:15.421Z,100422.03
2023-05-19T16:55:42.002Z,100422.00
2023-05-19T16:58:11.907Z,100412.94
2023-05-19T17:00:38.706Z,100425.44
2023-05-19T17:03:05.584Z,100422.66
2023-05-19T17:05:32.224Z,100425.66
2023-05-19T17:07:58.906Z,100422.31
2023-05-19T17:10:27.800Z,100420.34
2023-05-19T17:12:59.290Z,100416.41
2023-05-19T17:15:28.088Z,100420.84
2023-05-19T17:17:54.795Z,100424.38
2023-05-19T17:20:21.432Z,100417.50
2023-05-19T17:22:50.577Z,100415.09
2023-05-19T17:25:19.989Z,100422.78
2023-05-19T17:27:46.569Z,100423.00
2023-05-19T17:30:16.342Z,100424.13
2023-05-19T17:32:45.302Z,100421.56
2023-05-19T17:35:11.970Z,100431.16
2023-05-19T17:37:38.549Z,100431.94
2023-05-19T17:40:05.942Z,100430.22
2023-05-19T17:42:36.298Z,100440.69
2023-05-19T17:45:08.722Z,100439.84
2023-05-19T17:47:35.334Z,100441.19
2023-05-19T17:50:01.927Z,100446.78
2023-05-19T17:52:28.934Z,100446.66
2023-05-19T17:54:55.858Z,100443.31
2023-05-19T17:57:30.577Z,100454.25
2023-05-19T17:59:57.454Z,100447.31
2023-05-19T18:02:24.294Z,100453.25
2023-05-19T18:04:57.084Z,100445.88
2023-05-19T18:07:27.655Z,100448.63
2023-05-19T18:09:56.103Z,100445.19
2023-05-19T18:12:22.825Z,100439.22
2023-05-19T18:14:50.683Z,100448.78
2023-05-19T18:17:19.805Z,100441.88
2023-05-19T18:19:49.489Z,100444.56
2023-05-19T18:22:21.284Z,100446.44
2023-05-19T18:24:47.970Z,100440.56
2023-05-19T18:27:14.534Z,100440.00
2023-05-19T18:29:44.519Z,100451.47
2023-05-19T18:32:17.671Z,100443.81
2023-05-19T18:34:44.389Z,100453.69
2023-05-19T18:37:13.619Z,100462.78
2023-05-19T18:39:42.553Z,100462.97
2023-05-19T18:42:09.192Z,100462.09
2023-05-19T18:44:46.749Z,100465.47
2023-05-19T18:47:14.192Z,100472.41
2023-05-19T18:49:43.313Z,100460.22
2023-05-19T18:52:09.957Z,100468.16
2023-05-19T18:54:38.961Z,100474.25
2023-05-19T18:57:05.845Z,100472.56
2023-05-19T18:59:32.767Z,100476.16
2023-05-19T19:02:01.926Z,100471.00
2023-05-19T19:04:28.673Z,100466.69
2023-05-19T19:06:55.253Z,100464.25
2023-05-19T19:09:26.862Z,100465.13
2023-05-19T19:11:57.074Z,100478.19
2023-05-19T19:14:29.023Z,100471.38
2023-05-19T19:16:56.173Z,100470.56
2023-05-19T19:19:23.934Z,100473.16
2023-05-19T19:21:50.687Z,100475.75
2023-05-19T19:24:19.670Z,100482.63
2023-05-19T19:26:46.300Z,100489.69
2023-05-19T19:29:18.452Z,100484.59
2023-05-19T19:31:47.507Z,100481.94
2023-05-19T19:34:14.068Z,100495.75
2023-05-19T19:36:40.994Z,100497.50
2023-05-19T19:39:09.901Z,100487.06
2023-05-19T19:41:41.220Z,100494.97
2023-05-19T19:44:10.402Z,100496.69
2023-05-19T19:46:42.250Z,100494.06
2023-05-19T19:49:11.188Z,100495.75
2023-05-19T19:51:37.686Z,100493.16
2023-05-19T19:54:06.694Z,100504.50
2023-05-19T19:56:33.754Z,100502.63
2023-05-19T19:59:03.364Z,100507.84
2023-05-19T20:01:33.623Z,100502.75
2023-05-19T20:04:00.759Z,100498.44
2023-05-19T20:06:27.410Z,100495.88
2023-05-19T20:08:59.223Z,100495.81
2023-05-19T20:11:30.724Z,100501.94
2023-05-19T20:13:59.767Z,100496.78
2023-05-19T20:16:28.834Z,100501.94
2023-05-19T20:18:55.694Z,100501.94
2023-05-19T20:21:24.819Z,100498.53
2023-05-19T20:23:53.891Z,100502.97
2023-05-19T20:26:25.360Z,100502.97
2023-05-19T20:29:07.139Z,100497.66
2023-05-19T20:31:38.523Z,100502.91
2023-05-19T20:34:07.533Z,100503.75
2023-05-19T20:36:46.028Z,100505.53
2023-05-19T20:39:12.747Z,100495.13
2023-05-19T20:41:39.409Z,100502.97
2023-05-19T20:44:06.573Z,100497.00
2023-05-19T20:46:33.203Z,100495.22
2023-05-19T20:49:03.410Z,100496.16
2023-05-19T20:51:30.069Z,100503.03
2023-05-19T20:53:59.954Z,100496.16
2023-05-19T20:56:28.719Z,100494.38
2023-05-19T20:58:55.438Z,100490.81
2023-05-19T21:01:22.074Z,100496.00
2023-05-19T21:03:51.283Z,100496.00
2023-05-19T21:06:17.979Z,100492.59
2023-05-19T21:08:46.895Z,100485.63
2023-05-19T21:11:13.576Z,100483.94
2023-05-19T21:13:40.649Z,100487.41
2023-05-19T21:16:07.964Z,100482.22
2023-05-19T21:18:36.937Z,100484.78
2023-05-19T21:21:04.205Z,100487.34
2023-05-19T21:23:32.930Z,100490.00
2023-05-19T21:26:02.160Z,100489.19
2023-05-19T21:28:30.971Z,100484.84
2023-05-19T21:30:57.568Z,100487.44
2023-05-19T21:33:24.261Z,100482.28
2023-05-19T21:35:51.014Z,100488.25
2023-05-19T21:38:23.948Z,100480.41
2023-05-19T21:40:55.973Z,100480.38
2023-05-19T21:43:30.204Z,100475.25
2023-05-19T21:45:56.916Z,100487.41
2023-05-19T21:48:28.302Z,100482.13
2023-05-19T21:50:57.787Z,100486.44
2023-05-19T21:53:24.961Z,100483.00
2023-05-19T21:55:54.247Z,100480.50
2023-05-19T21:58:26.112Z,100476.22
2023-05-19T22:00:54.545Z,100471.06
2023-05-19T22:03:21.856Z,100474.56
2023-05-19T22:05:52.427Z,100473.66
2023-05-19T22:08:26.063Z,100475.34
2023-05-19T22:10:55.909Z,100469.31
2023-05-19T22:13:22.470Z,100466.69
2023-05-19T22:15:49.175Z,100459.81
2023-05-19T22:18:15.815Z,100449.34
2023-05-19T22:20:44.920Z,100447.59
2023-05-19T22:23:23.402Z,100448.50
2023-05-19T22:25:55.340Z,100440.69
2023-05-19T22:28:21.973Z,100444.16
2023-05-19T22:30:53.540Z,100437.19
2023-05-19T22:33:22.938Z,100428.53
2023-05-19T22:35:52.574Z,100435.47
2023-05-19T22:38:19.140Z,100438.88
2023-05-19T22:40:49.654Z,100437.97
2023-05-19T22:43:18.511Z,100429.44
2023-05-19T22:45:45.092Z,100434.66
2023-05-19T22:48:11.860Z,100443.38
2023-05-19T22:50:38.567Z,100441.63
2023-05-19T22:53:07.361Z,100442.50
2023-05-19T22:55:36.621Z,100440.72
2023-05-19T22:58:03.353Z,100440.69
2023-05-19T23:00:32.838Z,100439.78
2023-05-19T23:02:59.479Z,100440.63
2023-05-19T23:05:28.459Z,100438.03
2023-05-19T23:07:55.202Z,100432.97
2023-05-19T23:10:24.185Z,100430.38
2023-05-19T23:12:53.090Z,100428.66
2023-05-19T23:15:20.196Z,100420.03
2023-05-19T23:17:51.569Z,100422.66
2023-05-19T23:20:20.625Z,100424.44
2023-05-19T23:22:53.644Z,100419.25
2023-05-19T23:25:22.633Z,100427.06
2023-05-19T23:27:49.194Z,100429.59
2023-05-19T23:30:15.979Z,100425.25
2023-05-19T23:32:44.917Z,100422.69
2023-05-19T23:35:18.564Z,100420.09
2023-05-19T23:37:48.440Z,100430.47
2023-05-19T23:40:18.385Z,100409.72
2023-05-19T23:42:47.298Z,100413.19
2023-05-19T23:45:13.821Z,100420.97
2023-05-19T23:47:40.552Z,100408.00
2023-05-19T23:50:07.367Z,100401.09
2023-05-19T23:52:33.939Z,100410.66
2023-05-19T23:55:00.605Z,100398.53
2023-05-19T23:57:29.804Z,100399.41
2023-05-19T23:59:56.787Z,100387.31
